Time;durP1;ratioP1;P1;durP2;ratioP2;P2;SDS_P1;SDS_P2;PMS_P1;PMS_P2;Temp;Humidity;BMP_temperature;BMP_pressure;BME280_temperature;BME280_humidity;BME280_pressure;Samples;Min_cycle;Max_cycle;Signal;HPM_P1;HPM_P2
2021/06/01 00:01:24;;;;;;;19.58;12.15;;;;;;;16.38;62.25;101015.12;4408144;32;20088;-75
2021/06/01 00:03:50;;;;;;;23.42;13.15;;;;;;;16.26;62.75;101011.16;4412611;32;20081;-75
2021/06/01 00:06:16;;;;;;;19.60;11.60;;;;;;;16.25;62.52;101012.41;4406136;32;20509;-75
2021/06/01 00:08:42;;;;;;;17.12;11.73;;;;;;;16.18;62.81;101006.25;4429045;32;20094;-75
2021/06/01 00:11:09;;;;;;;19.23;11.90;;;;;;;16.16;62.79;101008.75;4426940;32;20065;-75
2021/06/01 00:13:35;;;;;;;30.58;12.27;;;;;;;16.11;63.29;101004.53;4410985;32;20496;-75
2021/06/01 00:16:05;;;;;;;24.45;11.57;;;;;;;16.08;63.27;101013.97;4400445;32;20046;-75
2021/06/01 00:18:31;;;;;;;27.00;12.65;;;;;;;16.05;63.40;101012.06;4413713;32;20079;-75
2021/06/01 00:20:57;;;;;;;22.58;13.00;;;;;;;15.95;63.73;101014.09;4413458;32;20042;-75
2021/06/01 00:23:23;;;;;;;22.02;12.77;;;;;;;15.93;63.86;101015.81;4409161;32;20113;-75
2021/06/01 00:25:49;;;;;;;21.48;10.70;;;;;;;15.87;64.05;101017.69;4413543;32;20073;-75
2021/06/01 00:28:16;;;;;;;23.60;12.37;;;;;;;15.82;64.25;101016.25;4419279;32;20532;-75
2021/06/01 00:30:42;;;;;;;22.92;11.73;;;;;;;15.70;64.58;101011.50;4398617;32;20148;-75
2021/06/01 00:33:09;;;;;;;21.62;11.25;;;;;;;15.65;64.60;101005.66;4410252;32;20037;-75
2021/06/01 00:35:36;;;;;;;18.10;9.77;;;;;;;15.64;64.73;101019.03;4411515;32;20058;-74
2021/06/01 00:38:03;;;;;;;24.73;11.27;;;;;;;15.59;64.90;101011.13;4404085;32;20054;-75
2021/06/01 00:40:29;;;;;;;18.90;11.05;;;;;;;15.54;65.37;101008.09;4408235;32;20461;-75
2021/06/01 00:42:55;;;;;;;20.60;11.32;;;;;;;15.54;65.27;101008.09;4409243;32;20119;-75
2021/06/01 00:45:23;;;;;;;17.23;10.13;;;;;;;15.46;65.67;100999.09;4412968;32;20054;-75
2021/06/01 00:47:49;;;;;;;17.73;10.07;;;;;;;15.38;66.08;101011.19;4412692;32;20099;-75
2021/06/01 00:50:16;;;;;;;19.15;10.35;;;;;;;15.42;65.59;101000.47;4412097;32;20455;-75
2021/06/01 00:52:42;;;;;;;17.87;10.18;;;;;;;15.33;66.09;101004.03;4408321;32;20101;-75
2021/06/01 00:55:09;;;;;;;17.27;9.77;;;;;;;15.30;65.98;101002.13;4412493;32;20082;-74
2021/06/01 00:57:35;;;;;;;18.50;10.23;;;;;;;15.21;66.34;100999.25;4411617;32;20049;-75
2021/06/01 01:00:02;;;;;;;17.48;11.18;;;;;;;15.19;66.21;100998.91;4410095;32;20042;-75
2021/06/01 01:02:28;;;;;;;19.05;10.70;;;;;;;15.11;66.31;100991.16;4408862;32;20096;-75
2021/06/01 01:04:54;;;;;;;22.25;11.15;;;;;;;15.00;66.53;101002.13;4412019;32;20102;-75
2021/06/01 01:07:35;;;;;;;25.67;11.12;;;;;;;14.94;66.56;101003.97;4410106;32;20113;-75
2021/06/01 01:10:01;;;;;;;26.37;11.90;;;;;;;14.92;66.80;100998.75;4412313;32;20054;-75
2021/06/01 01:12:34;;;;;;;20.45;10.77;;;;;;;14.87;66.86;101002.19;4408206;32;20046;-75
2021/06/01 01:15:05;;;;;;;20.70;10.52;;;;;;;14.82;67.36;100990.66;4412344;32;20175;-75
2021/06/01 01:17:49;;;;;;;18.85;10.18;;;;;;;14.80;67.41;100993.16;4410556;32;20441;-75
2021/06/01 01:20:44;;;;;;;21.17;10.45;;;;;;;14.84;66.96;100988.94;4417407;32;20753;-75
2021/06/01 01:23:14;;;;;;;19.17;10.15;;;;;;;14.83;66.78;100984.53;4394747;32;20408;-75
2021/06/01 01:31:01;;;;;;;17.08;11.00;;;;;;;15.04;67.07;100988.72;3989746;32;15021924;-74
2021/06/01 01:33:32;;;;;;;17.20;9.82;;;;;;;15.05;67.09;100985.31;4428091;32;20380;-74
2021/06/01 01:36:01;;;;;;;16.92;10.13;;;;;;;14.53;68.26;100975.94;4436286;32;20082;-74
2021/06/01 01:38:29;;;;;;;19.25;10.85;;;;;;;14.46;68.23;100971.34;4439399;32;20037;-74
2021/06/01 01:41:00;;;;;;;18.58;9.90;;;;;;;14.42;68.28;100979.16;4440140;32;20394;-74
2021/06/01 01:43:31;;;;;;;19.20;10.23;;;;;;;14.44;68.13;100984.38;4440186;32;20405;-74
2021/06/01 01:46:08;;;;;;;20.30;10.70;;;;;;;14.37;68.47;100988.25;4438909;32;20556;-74
2021/06/01 01:49:07;;;;;;;17.73;9.90;;;;;;;14.37;68.34;100988.25;4440889;32;20047;-74
2021/06/01 01:51:22;;;;;;;22.62;10.63;;;;;;;14.27;68.59;100992.25;4436051;32;20033;-74
2021/06/01 01:56:31;;;;;;;18.65;10.27;;;;;;;14.14;69.34;100987.84;3990109;32;15023491;-74
2021/06/01 01:58:58;;;;;;;19.65;11.15;;;;;;;14.05;69.23;100995.00;4438816;32;20457;-74
2021/06/01 02:01:25;;;;;;;20.10;10.63;;;;;;;14.05;69.29;100986.50;4431652;32;20076;-74
2021/06/01 02:03:52;;;;;;;22.98;11.40;;;;;;;13.99;69.46;100987.53;4422876;32;20087;-77
2021/06/01 02:06:18;;;;;;;19.35;10.50;;;;;;;13.94;69.69;100991.72;4416835;32;20041;-74
2021/06/01 02:08:44;;;;;;;18.45;10.85;;;;;;;13.84;70.01;100989.28;4425354;32;20555;-76
2021/06/01 02:11:10;;;;;;;20.37;11.05;;;;;;;13.78;70.31;100989.03;4421706;32;20111;-75
2021/06/01 02:13:46;;;;;;;15.55;9.93;;;;;;;13.74;70.25;100984.75;4412479;32;20536;-74
2021/06/01 02:16:13;;;;;;;20.85;10.55;;;;;;;13.80;70.02;100983.72;4425233;32;20401;-75
2021/06/01 02:18:39;;;;;;;21.67;10.48;;;;;;;13.74;70.08;100985.53;4434691;32;20293;-75
2021/06/01 02:21:22;;;;;;;23.77;11.38;;;;;;;13.65;70.41;100985.44;4421060;32;20116;-75
2021/06/01 02:23:56;;;;;;;19.70;10.93;;;;;;;13.58;70.71;100990.53;4422891;32;20430;-75
2021/06/01 02:29:06;;;;;;;20.50;10.15;;;;;;;13.96;69.89;100997.72;3991795;32;15025338;-74
2021/06/01 02:31:40;;;;;;;23.75;11.38;;;;;;;13.96;69.89;100997.72;4438980;32;20075;-77
2021/06/01 02:34:07;;;;;;;23.33;11.43;;;;;;;13.55;70.63;100980.94;4439112;32;20565;-75
2021/06/01 02:36:35;;;;;;;18.83;10.63;;;;;;;13.40;71.06;100982.63;4440777;32;20042;-75
2021/06/01 02:39:01;;;;;;;19.45;11.02;;;;;;;13.38;71.03;100992.81;4440706;32;20512;-75
2021/06/01 02:41:27;;;;;;;20.52;10.75;;;;;;;13.29;71.19;100990.63;4439423;32;20548;-75
2021/06/01 02:43:53;;;;;;;20.52;11.45;;;;;;;13.31;71.04;100990.19;4442874;32;20060;-75
2021/06/01 02:46:20;;;;;;;17.33;10.68;;;;;;;13.27;71.28;100984.66;4440505;32;20090;-75
2021/06/01 02:48:47;;;;;;;21.87;10.65;;;;;;;13.24;71.37;100987.59;4441030;32;20380;-75
2021/06/01 02:51:15;;;;;;;20.48;11.93;;;;;;;13.28;71.21;100976.94;4435583;32;20045;-75
2021/06/01 02:53:45;;;;;;;20.50;11.48;;;;;;;13.30;70.91;100983.75;4440482;32;20045;-75
2021/06/01 02:56:12;;;;;;;25.48;12.02;;;;;;;13.27;71.23;100981.03;4439367;32;20605;-75
2021/06/01 02:58:40;;;;;;;22.35;11.50;;;;;;;13.23;71.50;100980.34;4440969;32;20064;-75
2021/06/01 03:01:06;;;;;;;24.50;12.77;;;;;;;13.24;71.35;100979.09;4435166;32;20106;-75
2021/06/01 03:03:31;;;;;;;23.92;12.25;;;;;;;13.17;71.40;100974.47;4423322;32;20030;-75
2021/06/01 03:05:57;;;;;;;23.45;12.13;;;;;;;12.98;71.89;100974.66;4424845;32;20202;-75
2021/06/01 03:08:28;;;;;;;24.05;12.82;;;;;;;13.07;71.45;100963.50;4425108;32;20045;-75
2021/06/01 03:10:57;;;;;;;22.52;12.60;;;;;;;13.09;71.38;100967.44;4422841;32;20076;-75
2021/06/01 03:13:24;;;;;;;22.33;11.52;;;;;;;13.08;71.43;100956.59;4424948;32;20041;-75
2021/06/01 03:15:50;;;;;;;25.80;12.13;;;;;;;13.04;71.22;100956.69;4424625;32;20064;-75
2021/06/01 03:18:16;;;;;;;23.40;12.57;;;;;;;13.05;71.21;100955.47;4426063;32;20118;-75
2021/06/01 03:20:43;;;;;;;21.12;11.93;;;;;;;13.03;71.31;100957.16;4422390;32;20463;-75
2021/06/01 03:23:09;;;;;;;23.60;12.85;;;;;;;12.96;71.66;100954.50;4423573;32;20049;-75
2021/06/01 03:25:35;;;;;;;25.62;11.77;;;;;;;12.82;72.13;100952.91;4425327;32;20148;-75
2021/06/01 03:28:01;;;;;;;28.02;12.43;;;;;;;12.87;71.87;100945.91;4421366;32;20084;-75
2021/06/01 03:30:28;;;;;;;25.55;13.00;;;;;;;12.79;71.66;100948.16;4431485;32;20396;-75
2021/06/01 03:32:56;;;;;;;30.83;12.52;;;;;;;12.83;71.44;100942.41;4423816;32;20076;-75
2021/06/01 03:35:23;;;;;;;18.42;10.98;;;;;;;12.82;71.30;100941.59;4425560;32;20097;-75
2021/06/01 03:37:48;;;;;;;21.08;12.32;;;;;;;12.77;71.48;100941.38;4421893;32;20042;-75
2021/06/01 03:40:15;;;;;;;20.70;11.93;;;;;;;12.64;71.85;100943.38;4414770;32;20076;-75
2021/06/01 03:42:40;;;;;;;21.65;11.27;;;;;;;12.66;71.77;100941.69;4410823;32;20042;-75
2021/06/01 03:45:07;;;;;;;17.87;11.10;;;;;;;12.62;71.91;100945.84;4414222;32;20050;-75
2021/06/01 03:47:32;;;;;;;23.30;11.43;;;;;;;12.66;71.78;100941.69;4413539;32;20050;-75
2021/06/01 03:49:58;;;;;;;24.45;11.77;;;;;;;12.55;72.23;100929.91;4414241;32;20070;-75
2021/06/01 03:52:24;;;;;;;20.37;10.90;;;;;;;12.65;71.82;100936.50;4412971;32;20062;-75
2021/06/01 03:54:50;;;;;;;19.50;11.48;;;;;;;12.68;71.77;100939.22;4411150;32;20402;-75
2021/06/01 03:57:15;;;;;;;23.02;12.10;;;;;;;12.66;71.91;100933.22;4408736;32;20041;-75
2021/06/01 03:59:41;;;;;;;23.15;11.85;;;;;;;12.67;72.09;100936.84;4414324;32;20054;-75
2021/06/01 04:02:07;;;;;;;25.08;11.05;;;;;;;12.70;72.07;100938.78;4395253;32;20077;-75
2021/06/01 04:04:34;;;;;;;22.58;12.27;;;;;;;12.72;72.08;100933.44;4415579;32;20042;-75
2021/06/01 04:07:02;;;;;;;20.73;12.45;;;;;;;12.76;72.03;100929.28;4412880;32;20610;-75
2021/06/01 04:09:28;;;;;;;22.77;12.02;;;;;;;12.73;71.73;100930.19;4412788;32;20037;-75
2021/06/01 04:11:55;;;;;;;22.15;11.85;;;;;;;12.72;71.49;100939.09;4412246;32;20077;-75
2021/06/01 04:14:21;;;;;;;20.58;11.30;;;;;;;12.70;71.36;100931.06;4413221;32;20382;-75
2021/06/01 04:16:47;;;;;;;22.37;11.27;;;;;;;12.81;70.87;100933.59;4412885;32;20042;-75
2021/06/01 04:19:14;;;;;;;21.15;11.48;;;;;;;12.82;70.57;100938.00;4414816;32;20098;-75
2021/06/01 04:21:42;;;;;;;24.17;11.20;;;;;;;12.87;70.33;100931.78;4415951;32;20073;-75
2021/06/01 04:24:10;;;;;;;32.75;11.70;;;;;;;12.93;70.24;100941.28;4422803;32;20039;-75
2021/06/01 04:26:35;;;;;;;22.20;11.88;;;;;;;12.91;69.96;100938.91;4414278;32;20141;-75
2021/06/01 04:29:01;;;;;;;19.25;12.00;;;;;;;12.94;69.73;100940.03;4414528;32;20422;-75
2021/06/01 04:31:27;;;;;;;24.30;11.60;;;;;;;12.99;69.86;100934.69;4409432;32;20054;-75
2021/06/01 04:33:52;;;;;;;26.52;12.60;;;;;;;13.03;69.84;100943.81;4413141;32;20056;-75
2021/06/01 04:36:18;;;;;;;22.48;10.90;;;;;;;12.99;69.96;100939.50;4412217;32;20046;-75
2021/06/01 04:38:44;;;;;;;18.75;11.10;;;;;;;13.08;69.74;100931.16;4413767;32;20050;-74
2021/06/01 04:41:10;;;;;;;22.33;12.10;;;;;;;13.20;69.14;100938.87;4412453;32;20180;-74
2021/06/01 04:43:35;;;;;;;22.17;12.45;;;;;;;13.23;69.01;100938.72;4412394;32;20133;-74
2021/06/01 04:46:01;;;;;;;19.27;11.55;;;;;;;13.31;69.21;100933.66;4412746;32;20574;-74
2021/06/01 04:48:27;;;;;;;23.08;12.73;;;;;;;13.24;69.34;100937.50;4413843;32;20125;-74
2021/06/01 04:50:53;;;;;;;23.00;12.43;;;;;;;13.35;69.18;100946.44;4410613;32;20038;-73
2021/06/01 04:53:19;;;;;;;26.37;12.80;;;;;;;13.39;69.22;100941.47;4411575;32;20081;-73
2021/06/01 04:55:44;;;;;;;21.83;12.18;;;;;;;13.54;68.75;100941.78;4413785;32;20103;-75
2021/06/01 04:58:10;;;;;;;32.38;13.90;;;;;;;13.65;68.51;100939.38;4413605;32;20539;-75
2021/06/01 05:00:36;;;;;;;24.90;12.65;;;;;;;13.76;67.87;100940.62;4410412;32;20149;-76
2021/06/01 05:03:01;;;;;;;22.52;12.93;;;;;;;13.84;66.96;100939.13;4412049;32;20042;-75
2021/06/01 05:05:27;;;;;;;25.15;12.85;;;;;;;14.02;66.08;100941.34;4413402;32;20050;-75
2021/06/01 05:07:54;;;;;;;25.08;12.65;;;;;;;14.12;65.14;100936.56;4412556;32;20034;-76
2021/06/01 05:10:21;;;;;;;20.92;11.57;;;;;;;14.26;64.04;100936.09;4411562;32;20053;-76
2021/06/01 05:12:48;;;;;;;29.17;12.40;;;;;;;14.26;64.12;100927.63;4410713;32;20050;-75
2021/06/01 05:15:14;;;;;;;20.37;11.65;;;;;;;14.36;63.69;100934.91;4415684;32;20409;-76
2021/06/01 05:17:41;;;;;;;24.15;12.05;;;;;;;14.49;63.33;100927.16;4413497;32;20083;-76
2021/06/01 05:20:07;;;;;;;22.58;11.82;;;;;;;14.52;63.03;100918.53;4413156;32;20064;-75
2021/06/01 05:22:33;;;;;;;19.70;11.52;;;;;;;14.64;62.46;100923.34;4410917;32;20178;-75
2021/06/01 05:24:59;;;;;;;23.52;12.65;;;;;;;14.70;62.61;100927.12;4411905;32;20454;-76
2021/06/01 05:27:25;;;;;;;21.48;12.02;;;;;;;14.86;61.75;100920.47;4409551;32;20080;-76
2021/06/01 05:29:55;;;;;;;22.98;11.65;;;;;;;14.91;61.99;100925.56;4413643;32;20072;-76
2021/06/01 05:35:02;;;;;;;21.80;13.10;;;;;;;15.47;60.77;100926.91;3986558;32;15022350;-74
2021/06/01 05:37:34;;;;;;;21.90;12.32;;;;;;;15.47;60.77;100926.91;4440843;32;20056;-74
2021/06/01 05:40:01;;;;;;;23.92;12.90;;;;;;;15.22;60.79;100927.09;4441802;32;20045;-74
2021/06/01 05:42:26;;;;;;;18.37;11.07;;;;;;;15.25;60.62;100919.72;4439132;32;20084;-74
2021/06/01 05:44:52;;;;;;;21.65;11.82;;;;;;;15.33;60.10;100924.66;4439274;32;20042;-74
2021/06/01 05:47:18;;;;;;;24.92;12.43;;;;;;;15.36;59.51;100917.25;4440489;32;20041;-74
2021/06/01 05:49:44;;;;;;;29.08;12.00;;;;;;;15.39;58.98;100922.00;4440825;32;20359;-74
2021/06/01 05:52:11;;;;;;;28.42;12.88;;;;;;;15.43;58.65;100920.59;4437046;32;20370;-76
2021/06/01 05:54:37;;;;;;;23.75;12.55;;;;;;;15.52;58.56;100917.00;4438993;32;20716;-73
2021/06/01 05:57:04;;;;;;;25.75;12.95;;;;;;;15.64;58.21;100918.94;4432857;32;20049;-76
2021/06/01 05:59:32;;;;;;;24.77;12.30;;;;;;;15.81;57.29;100914.56;4440476;32;20049;-76
2021/06/01 06:01:58;;;;;;;26.30;13.15;;;;;;;15.68;57.41;100914.69;4428402;32;20335;-76
2021/06/01 06:04:24;;;;;;;26.33;12.52;;;;;;;15.83;57.38;100912.81;4424991;32;20068;-73
2021/06/01 06:06:50;;;;;;;29.73;12.68;;;;;;;15.98;56.49;100912.22;4423425;32;20071;-73
2021/06/01 06:09:16;;;;;;;28.65;13.48;;;;;;;16.05;55.90;100909.06;4416304;32;20046;-76
2021/06/01 06:11:42;;;;;;;29.80;14.80;;;;;;;16.02;56.29;100921.37;4420700;32;20539;-74
2021/06/01 06:14:08;;;;;;;25.15;13.52;;;;;;;16.08;55.97;100911.78;4424527;32;20062;-74
2021/06/01 06:16:40;;;;;;;28.20;13.43;;;;;;;16.24;55.74;100919.16;4423688;32;20101;-76
2021/06/01 06:19:06;;;;;;;33.88;14.65;;;;;;;16.36;55.32;100910.50;4422317;32;20552;-74
2021/06/01 06:21:32;;;;;;;29.75;14.75;;;;;;;16.42;55.14;100908.59;4420552;32;20102;-76
2021/06/01 06:23:58;;;;;;;29.48;15.15;;;;;;;16.44;55.03;100913.84;4422941;32;20037;-76
2021/06/01 06:26:25;;;;;;;33.42;14.38;;;;;;;16.58;54.57;100918.87;4418289;32;20478;-75
2021/06/01 06:28:50;;;;;;;31.58;13.57;;;;;;;16.54;54.37;100918.25;4411847;32;20402;-77
2021/06/01 06:31:16;;;;;;;35.40;13.75;;;;;;;16.50;54.37;100921.25;4422371;32;20138;-75
2021/06/01 06:33:42;;;;;;;33.33;14.95;;;;;;;16.70;53.78;100920.75;4423785;32;20049;-75
2021/06/01 06:36:09;;;;;;;40.58;14.70;;;;;;;16.81;53.43;100916.13;4424323;32;20061;-75
2021/06/01 06:38:35;;;;;;;34.67;14.63;;;;;;;16.99;52.63;100918.94;4426039;32;20038;-75
2021/06/01 06:43:40;;;;;;;34.22;15.10;;;;;;;17.47;52.27;100920.69;3992704;32;15021347;-74
2021/06/01 06:46:12;;;;;;;30.75;14.98;;;;;;;17.47;52.27;100920.69;4442011;32;20049;-75
2021/06/01 06:48:39;;;;;;;34.63;16.05;;;;;;;17.10;52.48;100922.06;4438939;32;20454;-75
2021/06/01 06:51:12;;;;;;;29.30;15.02;;;;;;;17.27;51.95;100922.47;4442297;32;20041;-75
2021/06/01 06:53:46;;;;;;;32.40;15.68;;;;;;;17.44;51.76;100912.31;4438358;32;20643;-75
2021/06/01 06:56:12;;;;;;;42.50;16.98;;;;;;;17.69;50.98;100918.34;4437658;32;20136;-75
2021/06/01 06:58:38;;;;;;;32.53;15.02;;;;;;;17.71;50.42;100912.94;4439318;32;20075;-75
2021/06/01 07:01:08;;;;;;;38.05;16.40;;;;;;;17.79;50.70;100925.56;4427944;32;20057;-75
2021/06/01 07:03:33;;;;;;;31.62;15.65;;;;;;;17.84;50.38;100915.56;4430375;32;20430;-75
2021/06/01 07:05:59;;;;;;;33.97;15.50;;;;;;;17.95;50.49;100915.03;4435994;32;20076;-75
2021/06/01 07:08:25;;;;;;;36.28;15.55;;;;;;;18.05;50.10;100911.63;4442322;32;20149;-75
2021/06/01 07:10:51;;;;;;;30.23;14.55;;;;;;;18.09;49.88;100914.25;4438563;32;20449;-75
2021/06/01 07:13:20;;;;;;;30.52;14.18;;;;;;;18.29;49.34;100909.53;4424825;32;20090;-75
2021/06/01 07:15:53;;;;;;;24.80;13.95;;;;;;;18.42;49.07;100917.84;4434413;32;20037;-75
2021/06/01 07:18:19;;;;;;;28.67;14.30;;;;;;;18.55;48.66;100921.19;4429133;32;20042;-75
2021/06/01 07:20:45;;;;;;;23.67;11.45;;;;;;;18.42;48.69;100915.78;4438206;32;20042;-75
2021/06/01 07:23:12;;;;;;;21.95;11.93;;;;;;;18.43;48.53;100911.66;4422026;32;20069;-75
2021/06/01 07:25:39;;;;;;;33.60;12.88;;;;;;;18.53;48.10;100918.06;4431823;32;20075;-75
2021/06/01 07:28:04;;;;;;;23.27;12.75;;;;;;;18.61;47.84;100916.38;4438013;32;20112;-74
2021/06/01 07:30:30;;;;;;;19.05;11.40;;;;;;;18.59;47.34;100910.41;4439064;32;20481;-75
2021/06/01 07:32:58;;;;;;;21.98;11.38;;;;;;;18.77;47.02;100911.00;4433967;32;20064;-75
2021/06/01 07:35:24;;;;;;;25.52;12.18;;;;;;;18.88;46.49;100907.56;4423301;32;20046;-76
2021/06/01 07:37:51;;;;;;;25.92;12.23;;;;;;;18.97;46.54;100907.47;4424234;32;20118;-75
2021/06/01 07:40:19;;;;;;;27.73;12.57;;;;;;;19.13;46.42;100898.37;4439478;32;20064;-74
2021/06/01 07:42:45;;;;;;;30.17;12.63;;;;;;;19.12;46.60;100899.69;4433168;32;20533;-75
2021/06/01 07:45:13;;;;;;;27.52;13.23;;;;;;;19.32;46.30;100903.41;4422873;32;20557;-75
2021/06/01 07:47:39;;;;;;;29.25;13.07;;;;;;;19.36;46.16;100906.06;4426888;32;20417;-75
2021/06/01 07:50:06;;;;;;;25.75;13.30;;;;;;;19.24;45.82;100896.50;4424739;32;20076;-74
2021/06/01 07:52:32;;;;;;;26.40;13.55;;;;;;;19.38;45.96;100901.44;4422719;32;20081;-74
2021/06/01 07:54:57;;;;;;;34.83;14.40;;;;;;;19.44;45.61;100895.81;4414601;32;20103;-75
2021/06/01 07:57:24;;;;;;;31.30;13.55;;;;;;;19.57;45.89;100901.97;4414751;32;20122;-74
2021/06/01 07:59:50;;;;;;;28.12;13.93;;;;;;;19.55;46.04;100899.59;4421117;32;20053;-74
2021/06/01 08:02:16;;;;;;;34.10;13.52;;;;;;;19.63;45.70;100895.06;4422401;32;20388;-75
2021/06/01 08:04:42;;;;;;;31.33;14.02;;;;;;;19.71;45.37;100893.38;4412389;32;20065;-75
2021/06/01 08:07:08;;;;;;;31.70;15.00;;;;;;;19.80;45.33;100886.72;4413483;32;20187;-75
2021/06/01 08:09:35;;;;;;;28.35;14.30;;;;;;;19.91;45.35;100884.00;4421826;32;20084;-75
2021/06/01 08:12:03;;;;;;;28.67;14.15;;;;;;;19.99;45.89;100892.94;4417286;32;20088;-75
2021/06/01 08:14:30;;;;;;;37.67;14.87;;;;;;;19.97;45.43;100886.94;4417856;32;20046;-75
2021/06/01 08:16:56;;;;;;;35.63;15.35;;;;;;;20.15;45.03;100886.69;4427949;32;20076;-75
2021/06/01 08:19:26;;;;;;;28.73;14.38;;;;;;;19.96;45.03;100880.44;4424938;32;20242;-75
2021/06/01 08:22:02;;;;;;;35.17;14.20;;;;;;;20.10;45.09;100888.16;4411051;32;20501;-75
2021/06/01 08:24:28;;;;;;;31.60;14.63;;;;;;;20.35;44.65;100886.66;4424697;32;20058;-74
2021/06/01 08:26:55;;;;;;;34.15;15.38;;;;;;;20.54;44.27;100885.03;4425097;32;20079;-74
2021/06/01 08:29:21;;;;;;;31.42;12.77;;;;;;;20.38;44.53;100877.87;4425603;32;20049;-74
2021/06/01 08:31:46;;;;;;;29.42;14.25;;;;;;;20.64;44.07;100883.59;4424648;32;20746;-74
2021/06/01 08:34:12;;;;;;;31.40;14.10;;;;;;;20.78;43.39;100882.69;4423077;32;20522;-74
2021/06/01 08:36:38;;;;;;;29.63;13.80;;;;;;;21.02;43.18;100874.63;4424192;32;20037;-76
2021/06/01 08:39:06;;;;;;;30.10;13.13;;;;;;;21.04;43.29;100869.94;4413129;32;20102;-74
2021/06/01 08:41:33;;;;;;;30.88;14.57;;;;;;;21.26;42.82;100875.84;4417859;32;20045;-74
2021/06/01 08:44:00;;;;;;;26.90;13.50;;;;;;;21.19;43.26;100873.47;4419212;32;20089;-74
2021/06/01 08:46:27;;;;;;;32.22;14.50;;;;;;;21.14;43.59;100873.44;4425521;32;20503;-74
2021/06/01 08:48:54;;;;;;;32.47;14.20;;;;;;;21.17;43.85;100878.91;4412223;32;20085;-74
2021/06/01 08:51:21;;;;;;;33.85;15.05;;;;;;;21.12;44.78;100876.78;4412568;32;20082;-74
2021/06/01 08:53:50;;;;;;;30.50;14.23;;;;;;;21.77;43.71;100874.09;4414117;32;20038;-75
2021/06/01 08:56:17;;;;;;;24.83;13.62;;;;;;;22.10;42.87;100874.28;4415030;32;20064;-75
2021/06/01 08:58:43;;;;;;;30.88;15.07;;;;;;;;;;4412536;32;20103;-74
2021/06/01 09:01:10;;;;;;;31.10;14.93;;;;;;;22.62;41.78;100869.75;4415695;32;20096;-74
2021/06/01 09:03:43;;;;;;;28.42;13.30;;;;;;;22.97;41.16;100867.97;4411365;32;20748;-74
2021/06/01 09:12:04;;;;;;;30.05;14.80;;;;;;;24.89;37.72;100862.91;3978040;32;15078052;-75
2021/06/01 09:23:05;;;;;;;34.00;14.43;;;;;;;24.33;38.47;100858.03;4437351;32;20639;-74
2021/06/01 09:25:39;;;;;;;33.47;15.55;;;;;;;24.64;38.48;100864.13;4440779;32;20087;-74
2021/06/01 09:28:07;;;;;;;24.98;13.90;;;;;;;24.85;38.29;100865.28;4440617;32;20116;-74
2021/06/01 09:33:26;;;;;;;32.33;14.13;;;;;;;26.13;36.72;100870.56;3991265;32;15035244;-75
2021/06/01 09:38:45;;;;;;;28.27;15.77;;;;;;;26.27;36.04;100875.91;3985934;32;15022641;-74
2021/06/01 09:52:05;;;;;;;27.87;16.70;;;;;;;27.19;35.29;100854.81;3981288;32;15022587;-75
2021/06/01 09:57:23;;;;;;;27.20;15.60;;;;;;;27.25;35.60;100856.88;3990313;32;15023489;-74
2021/06/01 10:00:11;;;;;;;24.70;15.88;;;;;;;27.25;35.60;100856.88;4439105;32;20052;-74
2021/06/01 10:02:38;;;;;;;26.33;15.50;;;;;;;27.27;35.68;100849.19;4420110;32;20478;-74
2021/06/01 10:05:08;;;;;;;34.17;17.27;;;;;;;27.60;35.10;100845.69;4425200;32;20367;-74
2021/06/01 10:07:34;;;;;;;29.98;16.40;;;;;;;27.86;34.43;100847.84;4417132;32;20049;-74
2021/06/01 10:10:00;;;;;;;22.15;15.55;;;;;;;28.19;33.75;100845.00;4424175;32;20110;-74
2021/06/01 10:12:26;;;;;;;32.97;16.33;;;;;;;28.33;33.87;100846.56;4421309;32;20128;-74
2021/06/01 10:14:52;;;;;;;29.20;17.75;;;;;;;28.84;33.25;100847.72;4419236;32;20057;-74
2021/06/01 10:17:18;;;;;;;27.75;17.15;;;;;;;28.29;33.86;100849.00;4415792;32;20458;-74
2021/06/01 10:19:44;;;;;;;32.97;18.60;;;;;;;28.59;33.43;100849.41;4419485;32;20045;-74
2021/06/01 10:22:10;;;;;;;30.35;16.48;;;;;;;28.83;33.23;100848.31;4421883;32;20072;-74
2021/06/01 10:24:37;;;;;;;39.50;18.80;;;;;;;29.50;32.28;100850.28;4411684;32;20483;-74
2021/06/01 10:27:06;;;;;;;34.13;19.25;;;;;;;29.87;31.58;100847.69;4409767;32;20484;-75
2021/06/01 10:29:32;;;;;;;33.92;20.48;;;;;;;30.23;30.94;100844.81;4412514;32;20106;-74
2021/06/01 10:31:58;;;;;;;32.22;19.92;;;;;;;29.89;31.36;100847.13;4417949;32;20504;-74
2021/06/01 10:34:24;;;;;;;35.05;20.25;;;;;;;30.33;30.91;100837.88;4419013;32;20447;-74
2021/06/01 10:42:33;;;;;;;31.80;17.05;;;;;;;31.67;29.05;100858.28;4422740;32;20110;-74
2021/06/01 10:49:14;;;;;;;31.55;19.25;;;;;;;31.32;29.37;100830.94;4431946;32;20552;-74
2021/06/01 10:51:26;;;;;;;26.12;17.40;;;;;;;31.49;29.43;100833.28;4424268;32;20045;-74
2021/06/01 10:53:52;;;;;;;31.05;19.15;;;;;;;31.98;28.76;100834.38;4413122;32;20049;-74
2021/06/01 10:56:18;;;;;;;30.95;18.12;;;;;;;32.28;28.63;100831.34;4436269;32;20611;-74
2021/06/01 11:04:20;;;;;;;26.40;18.50;;;;;;;33.21;26.74;100831.03;3982853;32;15021659;-75
2021/06/01 11:07:13;;;;;;;27.33;18.45;;;;;;;33.21;26.74;100831.03;4424301;32;20057;-75
2021/06/01 11:14:51;;;;;;;34.00;20.20;;;;;;;34.19;25.81;100825.00;3983568;32;15025852;-75
2021/06/01 11:17:32;;;;;;;36.55;20.23;;;;;;;34.19;25.81;100825.00;4435013;32;20049;-75
2021/06/01 11:22:57;;;;;;;36.17;23.43;;;;;;;34.33;26.11;100812.34;4000334;31;15020812;-75
2021/06/01 11:33:27;;;;;;;43.22;22.15;;;;;;;34.89;25.25;100809.69;4445666;32;20131;-74
2021/06/01 11:35:57;;;;;;;37.03;22.37;;;;;;;34.48;25.79;100801.88;4450120;32;20076;-74
2021/06/01 11:38:31;;;;;;;43.95;21.90;;;;;;;34.46;25.86;100805.41;4450118;32;20456;-75
2021/06/01 11:43:36;;;;;;;42.13;19.75;;;;;;;35.03;24.93;100811.59;3983168;32;15022136;-75
2021/06/01 11:46:09;;;;;;;31.75;16.80;;;;;;;35.03;24.93;100811.59;4440971;32;20461;-75
2021/06/01 11:51:25;;;;;;;29.77;17.00;;;;;;;35.92;24.02;100813.56;3987106;32;15021746;-75
2021/06/01 12:02:02;;;;;;;20.88;13.02;;;;;;;37.05;22.96;100800.13;4431530;32;20517;-75
2021/06/01 12:21:08;;;;;;;27.70;17.08;;;;;;;36.32;24.27;100789.50;3990062;32;15024413;-75
2021/06/01 12:23:40;;;;;;;30.52;17.08;;;;;;;36.32;24.27;100789.50;4438289;32;20041;-75
2021/06/01 12:43:00;;;;;;;25.90;14.07;;;;;;;36.29;24.26;100767.31;4430910;32;20083;-75
2021/06/01 13:19:24;;;;;;;15.50;10.95;;;;;;;38.49;21.80;100746.97;4458986;32;20090;-76
2021/06/01 13:30:48;;;;;;;15.70;10.65;;;;;;;38.20;21.04;100738.47;4443739;32;20076;-76
2021/06/01 13:39:16;;;;;;;14.48;8.80;;;;;;;38.32;21.89;100738.47;4426786;32;20124;-76
2021/06/01 13:47:07;;;;;;;16.12;10.93;;;;;;;39.54;20.41;100728.72;4435007;32;20072;-75
2021/06/01 13:49:46;;;;;;;13.43;9.32;;;;;;;38.81;21.30;100722.59;4440775;32;20335;-75
2021/06/01 13:52:31;;;;;;;16.25;9.43;;;;;;;38.85;21.43;100714.03;4432352;32;20045;-74
2021/06/01 13:55:35;;;;;;;11.57;8.75;;;;;;;40.31;20.09;100713.44;4440207;32;20045;-74
2021/06/01 14:00:44;;;;;;;12.35;9.75;;;;;;;38.24;21.62;100702.66;3984291;32;15026248;-81
2021/06/01 14:09:33;;;;;;;20.85;9.02;;;;;;;38.86;20.60;100709.69;4414037;32;20046;-78
2021/06/01 14:20:07;;;;;;;17.42;8.25;;;;;;;37.45;22.47;100681.84;4416265;32;20068;-78
2021/06/01 15:29:02;;;;;;;14.75;6.22;;;;;;;40.99;15.90;100664.94;4442558;32;20053;-77
2021/06/01 15:48:05;;;;;;;7.03;5.20;;;;;;;38.89;18.51;100637.75;4438734;32;20098;-76
2021/06/01 15:50:38;;;;;;;9.30;5.28;;;;;;;39.58;17.92;100646.47;4436884;32;20365;-77
2021/06/01 16:23:29;;;;;;;9.68;5.32;;;;;;;43.57;14.67;100646.56;3990659;31;15018687;-76
2021/06/01 16:31:42;;;;;;;16.00;5.50;;;;;;;41.81;15.48;100641.91;4442523;32;20041;-76